sensor_id;sensor_type;location;lat;lon;timestamp;P1;durP1;ratioP1;P2;durP2;ratioP2
7031;SDS011;3557;48.880;8.328;2022-09-12T00:00:47;5.47;;;4.60;;
7031;SDS011;3557;48.880;8.328;2022-09-12T00:03:16;5.03;;;4.43;;
7031;SDS011;3557;48.880;8.328;2022-09-12T00:05:43;5.30;;;4.22;;
7031;SDS011;3557;48.880;8.328;2022-09-12T00:08:12;5.28;;;4.78;;
7031;SDS011;3557;48.880;8.328;2022-09-12T00:10:40;6.85;;;4.78;;
7031;SDS011;3557;48.880;8.328;2022-09-12T00:13:09;6.70;;;5.00;;
7031;SDS011;3557;48.880;8.328;2022-09-12T00:15:37;5.15;;;4.65;;
7031;SDS011;3557;48.880;8.328;2022-09-12T00:18:04;6.10;;;4.78;;
7031;SDS011;3557;48.880;8.328;2022-09-12T00:20:33;4.93;;;4.32;;
7031;SDS011;3557;48.880;8.328;2022-09-12T00:23:00;4.90;;;4.40;;
7031;SDS011;3557;48.880;8.328;2022-09-12T00:25:27;5.38;;;4.55;;
7031;SDS011;3557;48.880;8.328;2022-09-12T00:27:55;5.05;;;4.13;;
7031;SDS011;3557;48.880;8.328;2022-09-12T00:30:22;8.95;;;4.53;;
7031;SDS011;3557;48.880;8.328;2022-09-12T00:32:50;5.25;;;4.40;;
7031;SDS011;3557;48.880;8.328;2022-09-12T00:35:18;8.13;;;5.07;;
7031;SDS011;3557;48.880;8.328;2022-09-12T00:37:47;5.20;;;4.45;;
7031;SDS011;3557;48.880;8.328;2022-09-12T00:40:14;7.75;;;4.78;;
7031;SDS011;3557;48.880;8.328;2022-09-12T00:42:42;6.72;;;4.70;;
7031;SDS011;3557;48.880;8.328;2022-09-12T00:45:10;6.65;;;4.50;;
7031;SDS011;3557;48.880;8.328;2022-09-12T00:47:49;5.97;;;4.60;;
7031;SDS011;3557;48.880;8.328;2022-09-12T00:50:16;10.30;;;4.68;;
7031;SDS011;3557;48.880;8.328;2022-09-12T00:52:44;5.40;;;4.70;;
7031;SDS011;3557;48.880;8.328;2022-09-12T00:55:18;8.07;;;5.15;;
7031;SDS011;3557;48.880;8.328;2022-09-12T00:57:48;5.18;;;4.50;;
7031;SDS011;3557;48.880;8.328;2022-09-12T01:00:20;5.45;;;4.68;;
7031;SDS011;3557;48.880;8.328;2022-09-12T01:02:50;5.47;;;4.93;;
7031;SDS011;3557;48.880;8.328;2022-09-12T01:05:20;5.95;;;4.50;;
7031;SDS011;3557;48.880;8.328;2022-09-12T01:07:50;5.95;;;4.63;;
7031;SDS011;3557;48.880;8.328;2022-09-12T01:10:18;5.57;;;4.50;;
7031;SDS011;3557;48.880;8.328;2022-09-12T01:12:45;6.68;;;4.55;;
7031;SDS011;3557;48.880;8.328;2022-09-12T01:15:13;7.18;;;4.80;;
7031;SDS011;3557;48.880;8.328;2022-09-12T01:17:46;7.65;;;5.20;;
7031;SDS011;3557;48.880;8.328;2022-09-12T01:20:30;6.90;;;4.80;;
7031;SDS011;3557;48.880;8.328;2022-09-12T01:23:21;6.40;;;4.95;;
7031;SDS011;3557;48.880;8.328;2022-09-12T01:32:33;6.32;;;5.03;;
7031;SDS011;3557;48.880;8.328;2022-09-12T01:35:14;5.30;;;4.63;;
7031;SDS011;3557;48.880;8.328;2022-09-12T01:37:49;10.30;;;4.82;;
7031;SDS011;3557;48.880;8.328;2022-09-12T01:40:28;6.43;;;4.97;;
7031;SDS011;3557;48.880;8.328;2022-09-12T01:43:02;5.60;;;4.50;;
7031;SDS011;3557;48.880;8.328;2022-09-12T01:45:45;11.73;;;5.18;;
7031;SDS011;3557;48.880;8.328;2022-09-12T01:48:21;8.00;;;5.25;;
7031;SDS011;3557;48.880;8.328;2022-09-12T01:50:54;5.18;;;4.68;;
7031;SDS011;3557;48.880;8.328;2022-09-12T01:53:26;7.15;;;4.93;;
7031;SDS011;3557;48.880;8.328;2022-09-12T01:56:01;5.43;;;4.68;;
7031;SDS011;3557;48.880;8.328;2022-09-12T01:58:34;5.65;;;4.85;;
7031;SDS011;3557;48.880;8.328;2022-09-12T02:01:08;6.63;;;4.85;;
7031;SDS011;3557;48.880;8.328;2022-09-12T02:03:41;8.38;;;5.28;;
7031;SDS011;3557;48.880;8.328;2022-09-12T02:06:14;5.20;;;4.70;;
7031;SDS011;3557;48.880;8.328;2022-09-12T02:08:46;6.65;;;4.57;;
7031;SDS011;3557;48.880;8.328;2022-09-12T02:11:16;6.28;;;5.32;;
7031;SDS011;3557;48.880;8.328;2022-09-12T02:13:46;10.82;;;5.10;;
7031;SDS011;3557;48.880;8.328;2022-09-12T02:16:20;6.18;;;5.00;;
7031;SDS011;3557;48.880;8.328;2022-09-12T02:18:54;5.47;;;4.50;;
7031;SDS011;3557;48.880;8.328;2022-09-12T02:21:25;7.20;;;4.18;;
7031;SDS011;3557;48.880;8.328;2022-09-12T02:23:57;4.65;;;4.00;;
7031;SDS011;3557;48.880;8.328;2022-09-12T02:26:28;5.68;;;4.80;;
7031;SDS011;3557;48.880;8.328;2022-09-12T02:29:00;6.05;;;4.55;;
7031;SDS011;3557;48.880;8.328;2022-09-12T02:31:30;5.45;;;4.35;;
7031;SDS011;3557;48.880;8.328;2022-09-12T02:34:09;8.98;;;4.40;;
7031;SDS011;3557;48.880;8.328;2022-09-12T02:36:51;4.97;;;4.47;;
7031;SDS011;3557;48.880;8.328;2022-09-12T02:39:28;5.93;;;4.95;;
7031;SDS011;3557;48.880;8.328;2022-09-12T02:41:55;5.30;;;4.68;;
7031;SDS011;3557;48.880;8.328;2022-09-12T02:44:26;4.88;;;4.05;;
7031;SDS011;3557;48.880;8.328;2022-09-12T02:46:56;7.07;;;4.60;;
7031;SDS011;3557;48.880;8.328;2022-09-12T02:49:27;5.45;;;4.43;;
7031;SDS011;3557;48.880;8.328;2022-09-12T02:51:55;6.30;;;4.53;;
7031;SDS011;3557;48.880;8.328;2022-09-12T02:54:22;6.95;;;4.97;;
7031;SDS011;3557;48.880;8.328;2022-09-12T02:56:50;5.88;;;4.68;;
7031;SDS011;3557;48.880;8.328;2022-09-12T02:59:18;5.60;;;4.85;;
7031;SDS011;3557;48.880;8.328;2022-09-12T03:01:49;5.40;;;4.90;;
7031;SDS011;3557;48.880;8.328;2022-09-12T03:04:38;7.45;;;4.97;;
7031;SDS011;3557;48.880;8.328;2022-09-12T03:07:25;6.78;;;5.22;;
7031;SDS011;3557;48.880;8.328;2022-09-12T03:10:07;8.63;;;5.22;;
7031;SDS011;3557;48.880;8.328;2022-09-12T03:12:49;7.32;;;5.28;;
7031;SDS011;3557;48.880;8.328;2022-09-12T03:15:27;5.88;;;4.68;;
7031;SDS011;3557;48.880;8.328;2022-09-12T03:18:05;8.57;;;5.32;;
7031;SDS011;3557;48.880;8.328;2022-09-12T03:20:49;8.52;;;5.38;;
7031;SDS011;3557;48.880;8.328;2022-09-12T03:23:25;6.70;;;5.53;;
7031;SDS011;3557;48.880;8.328;2022-09-12T03:25:59;5.28;;;4.78;;
7031;SDS011;3557;48.880;8.328;2022-09-12T03:28:31;7.38;;;5.20;;
7031;SDS011;3557;48.880;8.328;2022-09-12T03:31:02;6.45;;;5.07;;
7031;SDS011;3557;48.880;8.328;2022-09-12T03:33:39;5.63;;;4.50;;
7031;SDS011;3557;48.880;8.328;2022-09-12T03:36:08;10.20;;;5.20;;
7031;SDS011;3557;48.880;8.328;2022-09-12T03:38:41;6.95;;;4.70;;
7031;SDS011;3557;48.880;8.328;2022-09-12T03:41:08;5.63;;;4.38;;
7031;SDS011;3557;48.880;8.328;2022-09-12T03:43:36;5.15;;;4.00;;
7031;SDS011;3557;48.880;8.328;2022-09-12T03:46:04;6.45;;;4.70;;
7031;SDS011;3557;48.880;8.328;2022-09-12T03:48:31;13.90;;;4.65;;
7031;SDS011;3557;48.880;8.328;2022-09-12T03:50:59;5.85;;;4.63;;
7031;SDS011;3557;48.880;8.328;2022-09-12T03:53:27;6.68;;;5.00;;
7031;SDS011;3557;48.880;8.328;2022-09-12T03:55:55;6.18;;;4.93;;
7031;SDS011;3557;48.880;8.328;2022-09-12T03:58:23;7.20;;;5.05;;
7031;SDS011;3557;48.880;8.328;2022-09-12T04:00:50;6.20;;;5.30;;
7031;SDS011;3557;48.880;8.328;2022-09-12T04:03:17;6.15;;;5.55;;
7031;SDS011;3557;48.880;8.328;2022-09-12T04:05:45;6.18;;;5.10;;
7031;SDS011;3557;48.880;8.328;2022-09-12T04:08:12;12.43;;;4.90;;
7031;SDS011;3557;48.880;8.328;2022-09-12T04:10:41;6.47;;;4.95;;
7031;SDS011;3557;48.880;8.328;2022-09-12T04:13:08;6.75;;;4.95;;
7031;SDS011;3557;48.880;8.328;2022-09-12T04:15:36;8.43;;;5.55;;
7031;SDS011;3557;48.880;8.328;2022-09-12T04:18:03;5.53;;;4.78;;
7031;SDS011;3557;48.880;8.328;2022-09-12T04:20:30;7.47;;;5.07;;
7031;SDS011;3557;48.880;8.328;2022-09-12T04:22:58;9.15;;;5.15;;
7031;SDS011;3557;48.880;8.328;2022-09-12T04:25:25;7.57;;;4.65;;
7031;SDS011;3557;48.880;8.328;2022-09-12T04:27:53;6.25;;;4.97;;
7031;SDS011;3557;48.880;8.328;2022-09-12T04:30:20;8.20;;;4.75;;
7031;SDS011;3557;48.880;8.328;2022-09-12T04:32:47;5.15;;;4.65;;
7031;SDS011;3557;48.880;8.328;2022-09-12T04:35:14;5.15;;;4.65;;
7031;SDS011;3557;48.880;8.328;2022-09-12T04:37:41;6.68;;;4.97;;
7031;SDS011;3557;48.880;8.328;2022-09-12T04:40:09;4.97;;;4.53;;
7031;SDS011;3557;48.880;8.328;2022-09-12T04:42:36;5.18;;;4.55;;
7031;SDS011;3557;48.880;8.328;2022-09-12T04:45:05;8.85;;;5.22;;
7031;SDS011;3557;48.880;8.328;2022-09-12T04:47:33;5.57;;;4.82;;
7031;SDS011;3557;48.880;8.328;2022-09-12T04:50:00;6.25;;;4.90;;
7031;SDS011;3557;48.880;8.328;2022-09-12T04:52:28;5.32;;;4.55;;
7031;SDS011;3557;48.880;8.328;2022-09-12T04:54:55;9.95;;;4.38;;
7031;SDS011;3557;48.880;8.328;2022-09-12T04:57:22;4.60;;;4.20;;
7031;SDS011;3557;48.880;8.328;2022-09-12T04:59:50;7.07;;;4.82;;
7031;SDS011;3557;48.880;8.328;2022-09-12T05:02:18;6.60;;;3.90;;
7031;SDS011;3557;48.880;8.328;2022-09-12T05:04:45;7.47;;;4.28;;
7031;SDS011;3557;48.880;8.328;2022-09-12T05:07:12;6.43;;;4.25;;
7031;SDS011;3557;48.880;8.328;2022-09-12T05:09:39;5.55;;;3.90;;
7031;SDS011;3557;48.880;8.328;2022-09-12T05:12:06;5.25;;;4.07;;
7031;SDS011;3557;48.880;8.328;2022-09-12T05:14:33;5.05;;;4.55;;
7031;SDS011;3557;48.880;8.328;2022-09-12T05:17:00;6.65;;;4.00;;
7031;SDS011;3557;48.880;8.328;2022-09-12T05:19:29;6.78;;;4.90;;
7031;SDS011;3557;48.880;8.328;2022-09-12T05:21:57;8.02;;;4.63;;
7031;SDS011;3557;48.880;8.328;2022-09-12T05:24:24;5.38;;;4.78;;
7031;SDS011;3557;48.880;8.328;2022-09-12T05:26:51;7.28;;;4.60;;
7031;SDS011;3557;48.880;8.328;2022-09-12T05:29:18;9.38;;;4.57;;
7031;SDS011;3557;48.880;8.328;2022-09-12T05:31:45;6.03;;;4.75;;
7031;SDS011;3557;48.880;8.328;2022-09-12T05:34:16;7.80;;;4.70;;
7031;SDS011;3557;48.880;8.328;2022-09-12T05:36:44;8.70;;;4.57;;
7031;SDS011;3557;48.880;8.328;2022-09-12T05:39:11;6.07;;;4.55;;
7031;SDS011;3557;48.880;8.328;2022-09-12T05:41:39;5.45;;;4.20;;
7031;SDS011;3557;48.880;8.328;2022-09-12T05:44:09;5.45;;;4.60;;
7031;SDS011;3557;48.880;8.328;2022-09-12T05:46:39;6.35;;;4.40;;
7031;SDS011;3557;48.880;8.328;2022-09-12T05:49:08;7.25;;;4.60;;
7031;SDS011;3557;48.880;8.328;2022-09-12T05:51:37;6.97;;;4.47;;
7031;SDS011;3557;48.880;8.328;2022-09-12T05:54:09;11.00;;;5.25;;
7031;SDS011;3557;48.880;8.328;2022-09-12T05:56:38;9.93;;;5.90;;
7031;SDS011;3557;48.880;8.328;2022-09-12T05:59:09;9.32;;;7.05;;
7031;SDS011;3557;48.880;8.328;2022-09-12T06:01:38;10.25;;;6.70;;
7031;SDS011;3557;48.880;8.328;2022-09-12T06:04:06;12.45;;;6.50;;
7031;SDS011;3557;48.880;8.328;2022-09-12T06:06:34;11.27;;;6.70;;
7031;SDS011;3557;48.880;8.328;2022-09-12T06:09:03;13.40;;;6.57;;
7031;SDS011;3557;48.880;8.328;2022-09-12T06:11:33;11.10;;;5.28;;
7031;SDS011;3557;48.880;8.328;2022-09-12T06:14:03;8.95;;;5.00;;
7031;SDS011;3557;48.880;8.328;2022-09-12T06:16:30;8.07;;;5.38;;
7031;SDS011;3557;48.880;8.328;2022-09-12T06:19:00;5.90;;;5.25;;
7031;SDS011;3557;48.880;8.328;2022-09-12T06:21:30;9.13;;;5.28;;
7031;SDS011;3557;48.880;8.328;2022-09-12T06:23:58;5.70;;;5.20;;
7031;SDS011;3557;48.880;8.328;2022-09-12T06:26:26;5.72;;;5.05;;
7031;SDS011;3557;48.880;8.328;2022-09-12T06:28:56;5.68;;;5.05;;
7031;SDS011;3557;48.880;8.328;2022-09-12T06:31:25;6.35;;;5.03;;
7031;SDS011;3557;48.880;8.328;2022-09-12T06:33:55;7.90;;;4.28;;
7031;SDS011;3557;48.880;8.328;2022-09-12T06:36:26;4.43;;;4.03;;
7031;SDS011;3557;48.880;8.328;2022-09-12T06:38:54;4.50;;;4.10;;
7031;SDS011;3557;48.880;8.328;2022-09-12T06:41:23;4.65;;;4.18;;
7031;SDS011;3557;48.880;8.328;2022-09-12T06:43:51;4.30;;;3.90;;
7031;SDS011;3557;48.880;8.328;2022-09-12T06:46:20;6.75;;;4.25;;
7031;SDS011;3557;48.880;8.328;2022-09-12T06:48:48;9.60;;;3.90;;
7031;SDS011;3557;48.880;8.328;2022-09-12T06:51:16;6.80;;;4.03;;
7031;SDS011;3557;48.880;8.328;2022-09-12T06:53:45;6.55;;;3.83;;
7031;SDS011;3557;48.880;8.328;2022-09-12T06:56:13;4.32;;;3.92;;
7031;SDS011;3557;48.880;8.328;2022-09-12T06:58:43;4.22;;;3.72;;
7031;SDS011;3557;48.880;8.328;2022-09-12T07:01:11;4.10;;;3.70;;
7031;SDS011;3557;48.880;8.328;2022-09-12T07:03:42;5.65;;;3.85;;
7031;SDS011;3557;48.880;8.328;2022-09-12T07:06:13;6.32;;;3.90;;
7031;SDS011;3557;48.880;8.328;2022-09-12T07:08:42;5.40;;;3.58;;
7031;SDS011;3557;48.880;8.328;2022-09-12T07:11:11;5.63;;;3.97;;
7031;SDS011;3557;48.880;8.328;2022-09-12T07:13:40;4.53;;;4.10;;
7031;SDS011;3557;48.880;8.328;2022-09-12T07:16:10;4.97;;;4.05;;
7031;SDS011;3557;48.880;8.328;2022-09-12T07:18:38;4.72;;;4.10;;
7031;SDS011;3557;48.880;8.328;2022-09-12T07:21:08;4.97;;;4.05;;
7031;SDS011;3557;48.880;8.328;2022-09-12T07:23:37;6.78;;;4.50;;
7031;SDS011;3557;48.880;8.328;2022-09-12T07:26:06;4.25;;;3.83;;
7031;SDS011;3557;48.880;8.328;2022-09-12T07:28:35;6.95;;;4.57;;
7031;SDS011;3557;48.880;8.328;2022-09-12T07:31:06;8.57;;;4.30;;
7031;SDS011;3557;48.880;8.328;2022-09-12T07:33:35;6.53;;;4.20;;
7031;SDS011;3557;48.880;8.328;2022-09-12T07:36:03;5.07;;;4.57;;
7031;SDS011;3557;48.880;8.328;2022-09-12T07:38:34;4.93;;;3.85;;
7031;SDS011;3557;48.880;8.328;2022-09-12T07:41:04;4.40;;;4.00;;
7031;SDS011;3557;48.880;8.328;2022-09-12T07:43:36;4.90;;;4.20;;
7031;SDS011;3557;48.880;8.328;2022-09-12T07:46:04;4.25;;;3.88;;
7031;SDS011;3557;48.880;8.328;2022-09-12T07:48:31;4.35;;;3.95;;
7031;SDS011;3557;48.880;8.328;2022-09-12T07:50:59;6.78;;;3.95;;
7031;SDS011;3557;48.880;8.328;2022-09-12T07:53:29;4.80;;;3.95;;
7031;SDS011;3557;48.880;8.328;2022-09-12T07:56:00;5.78;;;4.18;;
7031;SDS011;3557;48.880;8.328;2022-09-12T07:58:28;4.90;;;4.00;;
7031;SDS011;3557;48.880;8.328;2022-09-12T08:01:00;6.05;;;3.83;;
7031;SDS011;3557;48.880;8.328;2022-09-12T08:03:29;4.40;;;3.80;;
7031;SDS011;3557;48.880;8.328;2022-09-12T08:06:01;4.57;;;3.83;;
7031;SDS011;3557;48.880;8.328;2022-09-12T08:08:30;7.28;;;4.10;;
7031;SDS011;3557;48.880;8.328;2022-09-12T08:10:57;5.35;;;4.03;;
7031;SDS011;3557;48.880;8.328;2022-09-12T08:13:27;4.80;;;3.85;;
7031;SDS011;3557;48.880;8.328;2022-09-12T08:15:56;5.60;;;3.70;;
7031;SDS011;3557;48.880;8.328;2022-09-12T08:18:24;4.40;;;3.83;;
7031;SDS011;3557;48.880;8.328;2022-09-12T08:20:56;4.13;;;3.72;;
7031;SDS011;3557;48.880;8.328;2022-09-12T08:23:23;6.28;;;4.13;;
7031;SDS011;3557;48.880;8.328;2022-09-12T08:25:54;3.60;;;3.30;;
7031;SDS011;3557;48.880;8.328;2022-09-12T08:28:23;4.60;;;3.65;;
7031;SDS011;3557;48.880;8.328;2022-09-12T08:30:51;4.82;;;3.55;;
7031;SDS011;3557;48.880;8.328;2022-09-12T08:33:18;3.90;;;3.50;;
7031;SDS011;3557;48.880;8.328;2022-09-12T08:35:46;4.00;;;3.30;;
7031;SDS011;3557;48.880;8.328;2022-09-12T08:38:13;4.05;;;3.42;;
7031;SDS011;3557;48.880;8.328;2022-09-12T08:40:42;4.40;;;3.88;;
7031;SDS011;3557;48.880;8.328;2022-09-12T08:43:18;3.83;;;3.45;;
7031;SDS011;3557;48.880;8.328;2022-09-12T08:46:04;5.38;;;3.70;;
7031;SDS011;3557;48.880;8.328;2022-09-12T08:48:38;5.15;;;3.70;;
7031;SDS011;3557;48.880;8.328;2022-09-12T08:51:08;3.90;;;3.60;;
7031;SDS011;3557;48.880;8.328;2022-09-12T08:53:40;4.43;;;3.70;;
7031;SDS011;3557;48.880;8.328;2022-09-12T08:56:08;4.35;;;3.95;;
7031;SDS011;3557;48.880;8.328;2022-09-12T08:58:39;6.20;;;3.83;;
7031;SDS011;3557;48.880;8.328;2022-09-12T09:01:09;3.70;;;3.30;;
7031;SDS011;3557;48.880;8.328;2022-09-12T09:04:03;3.42;;;3.13;;
7031;SDS011;3557;48.880;8.328;2022-09-12T09:06:57;3.67;;;3.20;;
7031;SDS011;3557;48.880;8.328;2022-09-12T09:09:44;3.92;;;3.50;;
7031;SDS011;3557;48.880;8.328;2022-09-12T09:12:25;5.38;;;3.65;;
7031;SDS011;3557;48.880;8.328;2022-09-12T09:17:59;3.60;;;3.30;;
7031;SDS011;3557;48.880;8.328;2022-09-12T09:20:31;9.73;;;3.60;;
7031;SDS011;3557;48.880;8.328;2022-09-12T09:23:05;4.75;;;3.90;;
7031;SDS011;3557;48.880;8.328;2022-09-12T09:25:41;5.45;;;3.72;;
7031;SDS011;3557;48.880;8.328;2022-09-12T09:28:15;3.90;;;3.50;;
7031;SDS011;3557;48.880;8.328;2022-09-12T09:30:48;4.20;;;3.45;;
7031;SDS011;3557;48.880;8.328;2022-09-12T09:33:18;6.82;;;3.67;;
7031;SDS011;3557;48.880;8.328;2022-09-12T09:35:51;3.72;;;3.42;;
7031;SDS011;3557;48.880;8.328;2022-09-12T09:38:31;4.50;;;3.42;;
7031;SDS011;3557;48.880;8.328;2022-09-12T09:41:15;4.25;;;3.70;;
7031;SDS011;3557;48.880;8.328;2022-09-12T09:43:55;4.20;;;3.80;;
7031;SDS011;3557;48.880;8.328;2022-09-12T09:46:24;5.40;;;3.40;;
7031;SDS011;3557;48.880;8.328;2022-09-12T09:48:52;4.55;;;3.35;;
7031;SDS011;3557;48.880;8.328;2022-09-12T09:51:22;5.03;;;3.80;;
7031;SDS011;3557;48.880;8.328;2022-09-12T09:53:53;4.80;;;3.10;;
7031;SDS011;3557;48.880;8.328;2022-09-12T09:56:27;6.53;;;3.55;;
7031;SDS011;3557;48.880;8.328;2022-09-12T09:59:06;4.10;;;3.15;;
7031;SDS011;3557;48.880;8.328;2022-09-12T10:01:37;4.15;;;3.30;;
7031;SDS011;3557;48.880;8.328;2022-09-12T10:04:18;3.63;;;3.33;;
7031;SDS011;3557;48.880;8.328;2022-09-12T10:06:46;4.75;;;3.38;;
7031;SDS011;3557;48.880;8.328;2022-09-12T10:09:20;3.38;;;3.08;;
7031;SDS011;3557;48.880;8.328;2022-09-12T10:11:50;4.72;;;3.03;;
7031;SDS011;3557;48.880;8.328;2022-09-12T10:14:35;3.10;;;2.80;;
7031;SDS011;3557;48.880;8.328;2022-09-12T10:17:27;8.70;;;3.25;;
7031;SDS011;3557;48.880;8.328;2022-09-12T10:19:56;4.75;;;3.50;;
7031;SDS011;3557;48.880;8.328;2022-09-12T10:22:25;6.13;;;3.20;;
7031;SDS011;3557;48.880;8.328;2022-09-12T10:24:55;3.85;;;2.80;;
7031;SDS011;3557;48.880;8.328;2022-09-12T10:27:24;4.95;;;2.80;;
7031;SDS011;3557;48.880;8.328;2022-09-12T10:29:59;4.30;;;3.08;;
7031;SDS011;3557;48.880;8.328;2022-09-12T10:32:32;4.60;;;2.90;;
7031;SDS011;3557;48.880;8.328;2022-09-12T10:35:03;8.80;;;3.20;;
7031;SDS011;3557;48.880;8.328;2022-09-12T10:37:33;4.93;;;3.60;;
7031;SDS011;3557;48.880;8.328;2022-09-12T10:40:05;3.33;;;3.03;;
7031;SDS011;3557;48.880;8.328;2022-09-12T10:42:48;4.63;;;2.85;;
7031;SDS011;3557;48.880;8.328;2022-09-12T10:45:17;3.13;;;2.83;;
7031;SDS011;3557;48.880;8.328;2022-09-12T10:47:48;3.40;;;3.10;;
7031;SDS011;3557;48.880;8.328;2022-09-12T10:50:19;2.83;;;2.60;;
7031;SDS011;3557;48.880;8.328;2022-09-12T10:52:52;3.53;;;3.10;;
7031;SDS011;3557;48.880;8.328;2022-09-12T10:55:21;4.38;;;3.03;;
7031;SDS011;3557;48.880;8.328;2022-09-12T10:57:59;5.95;;;3.05;;
7031;SDS011;3557;48.880;8.328;2022-09-12T11:00:48;4.07;;;3.08;;
7031;SDS011;3557;48.880;8.328;2022-09-12T11:03:28;3.05;;;2.75;;
7031;SDS011;3557;48.880;8.328;2022-09-12T11:06:13;3.33;;;2.78;;
7031;SDS011;3557;48.880;8.328;2022-09-12T11:08:50;7.90;;;2.88;;
7031;SDS011;3557;48.880;8.328;2022-09-12T11:11:46;6.18;;;2.83;;
7031;SDS011;3557;48.880;8.328;2022-09-12T11:14:30;3.38;;;2.53;;
7031;SDS011;3557;48.880;8.328;2022-09-12T11:17:13;4.63;;;2.67;;
7031;SDS011;3557;48.880;8.328;2022-09-12T11:20:02;4.00;;;2.80;;
7031;SDS011;3557;48.880;8.328;2022-09-12T11:23:25;3.97;;;2.70;;
7031;SDS011;3557;48.880;8.328;2022-09-12T11:26:27;4.30;;;2.80;;
7031;SDS011;3557;48.880;8.328;2022-09-12T11:29:11;2.78;;;2.58;;
7031;SDS011;3557;48.880;8.328;2022-09-12T11:31:51;2.70;;;2.50;;
7031;SDS011;3557;48.880;8.328;2022-09-12T11:34:38;2.75;;;2.55;;
7031;SDS011;3557;48.880;8.328;2022-09-12T11:37:26;2.83;;;2.40;;
7031;SDS011;3557;48.880;8.328;2022-09-12T11:40:22;6.13;;;2.78;;
7031;SDS011;3557;48.880;8.328;2022-09-12T11:42:57;2.85;;;2.58;;
7031;SDS011;3557;48.880;8.328;2022-09-12T11:45:29;4.72;;;2.60;;
7031;SDS011;3557;48.880;8.328;2022-09-12T11:48:03;2.63;;;2.42;;
7031;SDS011;3557;48.880;8.328;2022-09-12T11:50:35;2.53;;;2.33;;
7031;SDS011;3557;48.880;8.328;2022-09-12T11:53:09;3.92;;;2.90;;
7031;SDS011;3557;48.880;8.328;2022-09-12T11:55:46;2.50;;;2.30;;
7031;SDS011;3557;48.880;8.328;2022-09-12T11:58:20;3.20;;;2.50;;
7031;SDS011;3557;48.880;8.328;2022-09-12T12:00:54;2.83;;;2.28;;
7031;SDS011;3557;48.880;8.328;2022-09-12T12:03:25;4.82;;;2.58;;
7031;SDS011;3557;48.880;8.328;2022-09-12T12:06:00;5.57;;;2.40;;
7031;SDS011;3557;48.880;8.328;2022-09-12T12:08:33;2.88;;;2.40;;
7031;SDS011;3557;48.880;8.328;2022-09-12T12:11:04;2.65;;;2.45;;
7031;SDS011;3557;48.880;8.328;2022-09-12T12:13:33;4.78;;;2.40;;
7031;SDS011;3557;48.880;8.328;2022-09-12T12:16:04;2.88;;;2.58;;
7031;SDS011;3557;48.880;8.328;2022-09-12T12:18:37;2.70;;;2.40;;
7031;SDS011;3557;48.880;8.328;2022-09-12T12:21:18;2.17;;;2.05;;
7031;SDS011;3557;48.880;8.328;2022-09-12T12:24:16;2.63;;;2.42;;
7031;SDS011;3557;48.880;8.328;2022-09-12T12:26:53;2.95;;;2.20;;
7031;SDS011;3557;48.880;8.328;2022-09-12T12:29:42;2.90;;;2.70;;
7031;SDS011;3557;48.880;8.328;2022-09-12T12:32:20;2.95;;;2.60;;
7031;SDS011;3557;48.880;8.328;2022-09-12T12:34:48;4.22;;;2.40;;
7031;SDS011;3557;48.880;8.328;2022-09-12T12:40:22;2.83;;;2.47;;
7031;SDS011;3557;48.880;8.328;2022-09-12T12:42:56;3.40;;;2.35;;
7031;SDS011;3557;48.880;8.328;2022-09-12T12:51:36;2.60;;;2.40;;
7031;SDS011;3557;48.880;8.328;2022-09-12T12:57:23;2.47;;;2.28;;
7031;SDS011;3557;48.880;8.328;2022-09-12T12:59:59;2.65;;;2.20;;
7031;SDS011;3557;48.880;8.328;2022-09-12T13:02:32;2.47;;;2.28;;
7031;SDS011;3557;48.880;8.328;2022-09-12T13:05:02;2.67;;;2.00;;
7031;SDS011;3557;48.880;8.328;2022-09-12T13:07:42;1.95;;;1.85;;
7031;SDS011;3557;48.880;8.328;2022-09-12T13:10:18;2.97;;;2.30;;
7031;SDS011;3557;48.880;8.328;2022-09-12T13:12:50;2.28;;;2.08;;
7031;SDS011;3557;48.880;8.328;2022-09-12T13:15:28;3.30;;;2.20;;
7031;SDS011;3557;48.880;8.328;2022-09-12T13:18:15;2.72;;;2.15;;
7031;SDS011;3557;48.880;8.328;2022-09-12T13:20:50;2.65;;;2.42;;
7031;SDS011;3557;48.880;8.328;2022-09-12T13:23:21;4.22;;;2.40;;
7031;SDS011;3557;48.880;8.328;2022-09-12T13:25:54;3.00;;;2.38;;
7031;SDS011;3557;48.880;8.328;2022-09-12T13:28:24;3.63;;;2.20;;
7031;SDS011;3557;48.880;8.328;2022-09-12T13:30:55;5.35;;;2.50;;
7031;SDS011;3557;48.880;8.328;2022-09-12T13:33:31;2.53;;;2.13;;
7031;SDS011;3557;48.880;8.328;2022-09-12T13:41:55;3.53;;;2.70;;
7031;SDS011;3557;48.880;8.328;2022-09-12T13:45:09;3.13;;;2.00;;
7031;SDS011;3557;48.880;8.328;2022-09-12T13:47:40;2.47;;;2.20;;
7031;SDS011;3557;48.880;8.328;2022-09-12T13:50:13;3.35;;;2.33;;
7031;SDS011;3557;48.880;8.328;2022-09-12T13:52:45;3.33;;;2.20;;
7031;SDS011;3557;48.880;8.328;2022-09-12T13:55:26;2.13;;;1.92;;
7031;SDS011;3557;48.880;8.328;2022-09-12T13:57:58;2.50;;;2.30;;
7031;SDS011;3557;48.880;8.328;2022-09-12T14:00:28;2.53;;;2.30;;
7031;SDS011;3557;48.880;8.328;2022-09-12T14:02:57;6.00;;;2.20;;
7031;SDS011;3557;48.880;8.328;2022-09-12T14:05:43;2.53;;;2.30;;
7031;SDS011;3557;48.880;8.328;2022-09-12T14:08:19;2.35;;;2.15;;
7031;SDS011;3557;48.880;8.328;2022-09-12T14:10:48;3.13;;;2.30;;
7031;SDS011;3557;48.880;8.328;2022-09-12T14:13:17;2.35;;;2.15;;
7031;SDS011;3557;48.880;8.328;2022-09-12T14:15:47;2.17;;;2.00;;
7031;SDS011;3557;48.880;8.328;2022-09-12T14:18:21;2.40;;;2.20;;
7031;SDS011;3557;48.880;8.328;2022-09-12T14:20:50;2.67;;;1.90;;
7031;SDS011;3557;48.880;8.328;2022-09-12T14:23:23;2.47;;;2.10;;
7031;SDS011;3557;48.880;8.328;2022-09-12T14:25:53;2.95;;;2.00;;
7031;SDS011;3557;48.880;8.328;2022-09-12T14:28:22;2.60;;;2.40;;
7031;SDS011;3557;48.880;8.328;2022-09-12T14:31:01;4.35;;;2.30;;
7031;SDS011;3557;48.880;8.328;2022-09-12T14:33:31;3.22;;;2.22;;
7031;SDS011;3557;48.880;8.328;2022-09-12T14:36:06;5.07;;;2.00;;
7031;SDS011;3557;48.880;8.328;2022-09-12T14:38:39;1.95;;;1.85;;
7031;SDS011;3557;48.880;8.328;2022-09-12T14:41:09;4.40;;;2.08;;
7031;SDS011;3557;48.880;8.328;2022-09-12T14:43:39;2.53;;;2.13;;
7031;SDS011;3557;48.880;8.328;2022-09-12T14:46:15;2.40;;;2.13;;
7031;SDS011;3557;48.880;8.328;2022-09-12T14:48:46;2.35;;;2.08;;
7031;SDS011;3557;48.880;8.328;2022-09-12T14:51:18;2.00;;;1.83;;
7031;SDS011;3557;48.880;8.328;2022-09-12T14:53:50;2.30;;;2.10;;
7031;SDS011;3557;48.880;8.328;2022-09-12T14:56:19;2.45;;;2.17;;
7031;SDS011;3557;48.880;8.328;2022-09-12T14:58:47;3.42;;;2.20;;
7031;SDS011;3557;48.880;8.328;2022-09-12T15:01:25;1.90;;;1.80;;
7031;SDS011;3557;48.880;8.328;2022-09-12T15:03:53;1.83;;;1.73;;
7031;SDS011;3557;48.880;8.328;2022-09-12T15:06:22;3.00;;;2.00;;
7031;SDS011;3557;48.880;8.328;2022-09-12T15:08:54;1.88;;;1.70;;
7031;SDS011;3557;48.880;8.328;2022-09-12T15:11:22;3.15;;;2.00;;
7031;SDS011;3557;48.880;8.328;2022-09-12T15:13:50;3.67;;;2.00;;
7031;SDS011;3557;48.880;8.328;2022-09-12T15:16:17;5.00;;;1.98;;
7031;SDS011;3557;48.880;8.328;2022-09-12T15:18:45;2.20;;;1.85;;
7031;SDS011;3557;48.880;8.328;2022-09-12T15:21:15;3.20;;;1.83;;
7031;SDS011;3557;48.880;8.328;2022-09-12T15:23:45;4.93;;;2.40;;
7031;SDS011;3557;48.880;8.328;2022-09-12T15:26:14;4.03;;;1.90;;
7031;SDS011;3557;48.880;8.328;2022-09-12T15:28:43;3.22;;;1.90;;
7031;SDS011;3557;48.880;8.328;2022-09-12T15:31:11;2.13;;;1.63;;
7031;SDS011;3557;48.880;8.328;2022-09-12T15:33:46;1.85;;;1.75;;
7031;SDS011;3557;48.880;8.328;2022-09-12T15:36:14;2.15;;;1.95;;
7031;SDS011;3557;48.880;8.328;2022-09-12T15:38:44;2.75;;;2.05;;
7031;SDS011;3557;48.880;8.328;2022-09-12T15:41:13;2.20;;;2.00;;
7031;SDS011;3557;48.880;8.328;2022-09-12T15:43:43;3.00;;;2.10;;
7031;SDS011;3557;48.880;8.328;2022-09-12T15:46:11;2.22;;;2.03;;
7031;SDS011;3557;48.880;8.328;2022-09-12T15:48:39;1.95;;;1.80;;
7031;SDS011;3557;48.880;8.328;2022-09-12T15:51:10;1.80;;;1.70;;
7031;SDS011;3557;48.880;8.328;2022-09-12T15:53:37;2.17;;;1.92;;
7031;SDS011;3557;48.880;8.328;2022-09-12T15:56:05;2.38;;;2.17;;
7031;SDS011;3557;48.880;8.328;2022-09-12T15:58:32;2.45;;;2.25;;
7031;SDS011;3557;48.880;8.328;2022-09-12T16:00:59;2.35;;;1.90;;
7031;SDS011;3557;48.880;8.328;2022-09-12T16:03:27;2.10;;;1.90;;
7031;SDS011;3557;48.880;8.328;2022-09-12T16:05:55;2.10;;;1.80;;
7031;SDS011;3557;48.880;8.328;2022-09-12T16:08:26;2.60;;;1.92;;
7031;SDS011;3557;48.880;8.328;2022-09-12T16:10:56;3.05;;;1.92;;
7031;SDS011;3557;48.880;8.328;2022-09-12T16:13:25;1.70;;;1.60;;